createdAt,value
2016-08-25T00:01:51.392Z,1009.31
2016-08-25T00:16:55.980Z,1009.04
2016-08-25T00:31:56.029Z,1009.16
2016-08-25T00:46:53.502Z,1009.05
2016-08-25T01:01:56.232Z,1009.04
2016-08-25T01:16:55.999Z,1009.04
2016-08-25T01:31:56.056Z,1008.88
2016-08-25T01:46:51.406Z,1008.92
2016-08-25T02:01:58.110Z,1008.87
2016-08-25T02:16:51.409Z,1008.92
2016-08-25T02:31:56.075Z,1008.82
2016-08-25T02:46:56.348Z,1008.7
2016-08-25T03:01:51.409Z,1008.73
2016-08-25T03:16:51.426Z,1008.55
2016-08-25T03:32:01.697Z,1008.53
2016-08-25T03:46:51.420Z,1008.63
2016-08-25T04:01:57.646Z,1008.71
2016-08-25T04:16:51.438Z,1008.85
2016-08-25T04:31:51.426Z,1008.89
2016-08-25T04:46:51.466Z,1008.58
2016-08-25T05:01:56.041Z,1008.72
2016-08-25T05:16:56.380Z,1008.67
2016-08-25T05:31:57.752Z,1008.75
2016-08-25T05:46:56.064Z,1008.87
2016-08-25T06:01:56.026Z,1008.85
2016-08-25T06:16:56.034Z,1008.52
2016-08-25T06:31:56.030Z,1008.73
2016-08-25T06:46:57.777Z,1008.49
2016-08-25T07:01:56.029Z,1008.43
2016-08-25T07:16:56.040Z,1008.29
2016-08-25T07:31:53.451Z,1008.26
2016-08-25T07:46:57.692Z,1008.27
2016-08-25T08:01:57.661Z,1008.35
2016-08-25T08:16:56.038Z,1008.3
2016-08-25T08:31:56.049Z,1008.34
2016-08-25T08:46:57.600Z,1008.34
2016-08-25T09:01:56.393Z,1008.23
2016-08-25T09:16:56.040Z,1007.99
2016-08-25T09:31:53.549Z,1007.82
2016-08-25T09:46:53.444Z,1007.69
2016-08-25T10:01:57.693Z,1007.52
2016-08-25T10:16:53.547Z,1007.5
2016-08-25T10:31:53.554Z,1007.32
2016-08-25T10:46:59.772Z,1007.32
2016-08-25T11:02:02.305Z,1007.28
2016-08-25T11:16:51.477Z,1007.25
2016-08-25T11:31:51.470Z,1007.14
2016-08-25T11:46:51.474Z,1007.03
2016-08-25T12:01:55.681Z,1006.96
2016-08-25T12:16:51.506Z,1006.68
2016-08-25T12:31:51.465Z,1006.57
2016-08-25T12:46:51.462Z,1006.48
2016-08-25T13:01:51.460Z,1006.24
2016-08-25T13:16:51.532Z,1006.24
2016-08-25T13:31:52.312Z,1006.09
2016-08-25T13:46:51.473Z,1005.93
2016-08-25T14:01:55.242Z,1005.86
2016-08-25T14:16:56.500Z,1005.66
2016-08-25T14:31:53.490Z,1005.51
2016-08-25T14:46:51.492Z,1005.31
2016-08-25T15:01:51.486Z,1005.11
2016-08-25T15:17:02.075Z,1004.9
2016-08-25T15:31:53.601Z,1004.6
2016-08-25T15:46:55.713Z,1004.48
2016-08-25T16:01:53.609Z,1004.44
2016-08-25T16:16:51.515Z,1004.19
2016-08-25T16:31:51.555Z,1004.18
2016-08-25T16:46:51.510Z,1004.13
2016-08-25T17:01:51.504Z,1004.04
2016-08-25T17:16:51.512Z,1004.08
2016-08-25T17:31:51.561Z,1003.97
2016-08-25T17:46:51.522Z,1004.07
2016-08-25T18:01:51.517Z,1004.03
2016-08-25T18:16:57.304Z,1004.01
2016-08-25T18:31:55.719Z,1004.05
2016-08-25T18:47:01.864Z,1004.22
2016-08-25T19:01:58.124Z,1004.33
2016-08-25T19:16:51.526Z,1004.34
2016-08-25T19:31:51.524Z,1004.24
2016-08-25T19:46:56.497Z,1004.21
2016-08-25T20:01:55.316Z,1004.22
2016-08-25T20:16:51.533Z,1004.23
2016-08-25T20:31:51.533Z,1004.25
2016-08-25T20:46:53.596Z,1004.35
2016-08-25T21:01:51.687Z,1004.29
2016-08-25T21:16:51.525Z,1004.37
2016-08-25T21:31:51.539Z,1004.36
2016-08-25T21:46:56.172Z,1004.4
2016-08-25T22:02:02.717Z,1004.26
2016-08-25T22:17:02.347Z,1004.32
2016-08-25T22:31:51.533Z,1004.14
2016-08-25T22:46:51.528Z,1004.07
2016-08-25T23:01:56.662Z,1004.24
2016-08-25T23:16:51.561Z,1004.25
2016-08-25T23:31:51.538Z,1004.13
2016-08-25T23:46:51.538Z,1004.06
